KCSM/CSM METAR and TAF weather

Enter ICAO airport designator
Station Type Date Time Source
KCSM METAR 2018/10/16 14:53 UTC NOAA

KCSM 161453Z 34006KT 10SM BKN090 07/01 A3038 RMK AO2 SLP292 60000 T00670006 53003


Station Type Date Time Source
KCSM Decoded METAR 2018/10/16 14:53 UTC NOAA

CLINTON-SHERMAN AIRPORT, OK, United States (KCSM) 35-21E 99-12W 588M
Oct 16, 2018 - 10:53 AM EDT / 2018.10.16 1453 UTC
Wind: from the NNW (340 degrees) at 7 MPH (6 KT):0
Visibility: 10 mile(s):0
Sky conditions: mostly cloudy
Temperature: 44.1 F (6.7 C)
Dew Point: 33.1 F (0.6 C)
Relative Humidity: 65%
Pressure (altimeter): 30.38 in. Hg (1028 hPa)
Pressure tendency: 0.01 inches (0.3 hPa) higher than three hours ago
ob: KCSM 161453Z 34006KT 10SM BKN090 07/01 A3038 RMK AO2 SLP292 60000 T00670006 53003
cycle: 15

Station Type Date Time Source
KCSM TAF 2018/10/16 12:22 UTC NOAA

TAF KCSM 161120Z 1612/1712 01006KT P6SM VCSH OVC080
FM161800 36009KT P6SM OVC050
FM170200 15005KT P6SM BKN100 OVC200


Example: see airport list